sensor_id;sensor_type;location;lat;lon;timestamp;pressure;altitude;pressure_sealevel;temperature;humidity
12624;BME280;6377;42.836;23.998;2022-11-11T00:01:00;96830.94;;;7.85;100.00
12624;BME280;6377;42.836;23.998;2022-11-11T00:03:27;96845.25;;;7.92;100.00
12624;BME280;6377;42.836;23.998;2022-11-11T00:05:59;96777.59;;;7.53;100.00
12624;BME280;6377;42.836;23.998;2022-11-11T00:08:26;96793.72;;;7.69;100.00
12624;BME280;6377;42.836;23.998;2022-11-11T00:10:59;96835.69;;;8.01;100.00
12624;BME280;6377;42.836;23.998;2022-11-11T00:13:29;96795.00;;;7.74;100.00
12624;BME280;6377;42.836;23.998;2022-11-11T00:16:03;96831.13;;;8.03;100.00
12624;BME280;6377;42.836;23.998;2022-11-11T00:18:30;96841.41;;;8.06;100.00
12624;BME280;6377;42.836;23.998;2022-11-11T00:21:14;96832.94;;;8.12;100.00
12624;BME280;6377;42.836;23.998;2022-11-11T00:23:59;96829.63;;;8.19;100.00
12624;BME280;6377;42.836;23.998;2022-11-11T00:26:43;96833.66;;;8.23;100.00
12624;BME280;6377;42.836;23.998;2022-11-11T00:29:12;96836.03;;;8.26;100.00
12624;BME280;6377;42.836;23.998;2022-11-11T00:31:39;96823.03;;;8.34;100.00
12624;BME280;6377;42.836;23.998;2022-11-11T00:34:26;96821.78;;;8.29;100.00
12624;BME280;6377;42.836;23.998;2022-11-11T00:36:53;96828.34;;;8.44;100.00
12624;BME280;6377;42.836;23.998;2022-11-11T00:39:19;96825.25;;;8.49;100.00
12624;BME280;6377;42.836;23.998;2022-11-11T00:41:47;96822.09;;;8.55;100.00
12624;BME280;6377;42.836;23.998;2022-11-11T00:44:15;96822.38;;;8.61;100.00
12624;BME280;6377;42.836;23.998;2022-11-11T00:46:43;96766.56;;;8.37;100.00
12624;BME280;6377;42.836;23.998;2022-11-11T00:49:27;96806.69;;;8.69;100.00
12624;BME280;6377;42.836;23.998;2022-11-11T00:52:12;96824.31;;;8.78;100.00
12624;BME280;6377;42.836;23.998;2022-11-11T00:54:39;96814.88;;;8.85;100.00
12624;BME280;6377;42.836;23.998;2022-11-11T00:57:06;96819.72;;;8.90;100.00
12624;BME280;6377;42.836;23.998;2022-11-11T00:59:35;96819.16;;;8.96;100.00
12624;BME280;6377;42.836;23.998;2022-11-11T01:02:04;96803.50;;;8.94;100.00
12624;BME280;6377;42.836;23.998;2022-11-11T01:04:32;96809.72;;;9.03;100.00
12624;BME280;6377;42.836;23.998;2022-11-11T01:06:59;96806.66;;;9.08;100.00
12624;BME280;6377;42.836;23.998;2022-11-11T01:09:26;96813.31;;;9.12;100.00
12624;BME280;6377;42.836;23.998;2022-11-11T01:11:53;96803.31;;;9.15;100.00
12624;BME280;6377;42.836;23.998;2022-11-11T01:14:21;96802.47;;;9.15;100.00
12624;BME280;6377;42.836;23.998;2022-11-11T01:16:49;96808.44;;;9.17;100.00
12624;BME280;6377;42.836;23.998;2022-11-11T01:19:17;96809.56;;;9.14;100.00
12624;BME280;6377;42.836;23.998;2022-11-11T01:21:44;96806.66;;;9.08;100.00
12624;BME280;6377;42.836;23.998;2022-11-11T01:24:11;96806.38;;;9.11;100.00
12624;BME280;6377;42.836;23.998;2022-11-11T01:26:38;96799.16;;;9.13;100.00
12624;BME280;6377;42.836;23.998;2022-11-11T01:29:05;96797.88;;;9.17;100.00
12624;BME280;6377;42.836;23.998;2022-11-11T01:31:33;96774.16;;;9.07;100.00
12624;BME280;6377;42.836;23.998;2022-11-11T01:34:01;96808.84;;;9.22;100.00
12624;BME280;6377;42.836;23.998;2022-11-11T01:36:29;96792.03;;;9.23;100.00
12624;BME280;6377;42.836;23.998;2022-11-11T01:38:57;96792.44;;;9.28;100.00
12624;BME280;6377;42.836;23.998;2022-11-11T01:41:27;96782.31;;;9.23;100.00
12624;BME280;6377;42.836;23.998;2022-11-11T01:44:17;96790.78;;;9.36;100.00
12624;BME280;6377;42.836;23.998;2022-11-11T01:46:47;96789.50;;;9.40;100.00
12624;BME280;6377;42.836;23.998;2022-11-11T01:49:22;96782.94;;;9.44;100.00
12624;BME280;6377;42.836;23.998;2022-11-11T01:51:57;96782.13;;;9.44;100.00
12624;BME280;6377;42.836;23.998;2022-11-11T01:54:29;96769.50;;;9.38;100.00
12624;BME280;6377;42.836;23.998;2022-11-11T01:57:03;96786.94;;;9.48;100.00
12624;BME280;6377;42.836;23.998;2022-11-11T01:59:33;96773.84;;;9.20;100.00
12624;BME280;6377;42.836;23.998;2022-11-11T02:02:06;96783.72;;;9.18;100.00
12624;BME280;6377;42.836;23.998;2022-11-11T02:04:37;96772.06;;;9.11;100.00
12624;BME280;6377;42.836;23.998;2022-11-11T02:07:23;96787.88;;;9.20;100.00
12624;BME280;6377;42.836;23.998;2022-11-11T02:09:52;96784.28;;;9.21;100.00
12624;BME280;6377;42.836;23.998;2022-11-11T02:12:21;96785.78;;;9.33;100.00
12624;BME280;6377;42.836;23.998;2022-11-11T02:15:06;96779.09;;;9.39;100.00
12624;BME280;6377;42.836;23.998;2022-11-11T02:17:33;96778.50;;;9.45;100.00
12624;BME280;6377;42.836;23.998;2022-11-11T02:20:03;96779.75;;;9.50;100.00
12624;BME280;6377;42.836;23.998;2022-11-11T02:22:37;96779.56;;;9.52;100.00
12624;BME280;6377;42.836;23.998;2022-11-11T02:25:12;96749.63;;;9.34;100.00
12624;BME280;6377;42.836;23.998;2022-11-11T02:27:44;96782.47;;;9.58;100.00
12624;BME280;6377;42.836;23.998;2022-11-11T02:30:15;96780.81;;;9.57;100.00
12624;BME280;6377;42.836;23.998;2022-11-11T02:32:43;96765.41;;;9.53;100.00
12624;BME280;6377;42.836;23.998;2022-11-11T02:35:13;96768.19;;;9.51;100.00
12624;BME280;6377;42.836;23.998;2022-11-11T02:37:42;96773.31;;;9.53;100.00
12624;BME280;6377;42.836;23.998;2022-11-11T02:40:15;96769.84;;;9.52;100.00
12624;BME280;6377;42.836;23.998;2022-11-11T02:42:43;96768.91;;;9.44;100.00
12624;BME280;6377;42.836;23.998;2022-11-11T02:45:09;96781.63;;;9.58;100.00
12624;BME280;6377;42.836;23.998;2022-11-11T02:47:36;96777.03;;;9.60;100.00
12624;BME280;6377;42.836;23.998;2022-11-11T02:50:05;96770.78;;;9.61;100.00
12624;BME280;6377;42.836;23.998;2022-11-11T02:52:32;96767.75;;;9.56;100.00
12624;BME280;6377;42.836;23.998;2022-11-11T02:55:00;96765.44;;;9.43;100.00
12624;BME280;6377;42.836;23.998;2022-11-11T02:57:29;96780.97;;;9.56;100.00
12624;BME280;6377;42.836;23.998;2022-11-11T02:59:58;96736.03;;;9.29;100.00
12624;BME280;6377;42.836;23.998;2022-11-11T03:02:25;96767.00;;;9.36;100.00
12624;BME280;6377;42.836;23.998;2022-11-11T03:04:53;96782.38;;;9.50;100.00
12624;BME280;6377;42.836;23.998;2022-11-11T03:07:20;96771.22;;;9.56;100.00
12624;BME280;6377;42.836;23.998;2022-11-11T03:09:48;96774.56;;;9.58;100.00
12624;BME280;6377;42.836;23.998;2022-11-11T03:12:15;96772.16;;;9.65;100.00
12624;BME280;6377;42.836;23.998;2022-11-11T03:14:44;96760.09;;;9.63;100.00
12624;BME280;6377;42.836;23.998;2022-11-11T03:17:11;96775.28;;;9.78;100.00
12624;BME280;6377;42.836;23.998;2022-11-11T03:19:55;96764.28;;;9.83;100.00
12624;BME280;6377;42.836;23.998;2022-11-11T03:22:43;96761.19;;;9.87;100.00
12624;BME280;6377;42.836;23.998;2022-11-11T03:25:09;96766.06;;;9.92;100.00
12624;BME280;6377;42.836;23.998;2022-11-11T03:27:53;96762.72;;;9.90;100.00
12624;BME280;6377;42.836;23.998;2022-11-11T03:30:22;96759.66;;;9.94;100.00
12624;BME280;6377;42.836;23.998;2022-11-11T03:32:49;96760.03;;;9.99;100.00
12624;BME280;6377;42.836;23.998;2022-11-11T03:35:16;96746.69;;;10.01;100.00
12624;BME280;6377;42.836;23.998;2022-11-11T03:37:44;96752.75;;;10.01;100.00
12624;BME280;6377;42.836;23.998;2022-11-11T03:40:28;96749.44;;;9.99;100.00
12624;BME280;6377;42.836;23.998;2022-11-11T03:42:55;96747.47;;;10.01;100.00
12624;BME280;6377;42.836;23.998;2022-11-11T03:45:24;96744.03;;;10.01;100.00
12624;BME280;6377;42.836;23.998;2022-11-11T03:47:51;96745.53;;;10.03;100.00
12624;BME280;6377;42.836;23.998;2022-11-11T03:50:19;96743.88;;;10.02;100.00
12624;BME280;6377;42.836;23.998;2022-11-11T03:52:46;96744.41;;;10.06;100.00
12624;BME280;6377;42.836;23.998;2022-11-11T03:55:14;96739.97;;;10.06;100.00
12624;BME280;6377;42.836;23.998;2022-11-11T03:57:42;96747.88;;;10.06;100.00
12624;BME280;6377;42.836;23.998;2022-11-11T04:00:11;96726.59;;;9.81;100.00
12624;BME280;6377;42.836;23.998;2022-11-11T04:02:41;96749.75;;;9.96;100.00
12624;BME280;6377;42.836;23.998;2022-11-11T04:05:25;96711.75;;;9.80;100.00
12624;BME280;6377;42.836;23.998;2022-11-11T04:08:11;96742.13;;;9.93;100.00
12624;BME280;6377;42.836;23.998;2022-11-11T04:10:56;96748.38;;;9.92;100.00
12624;BME280;6377;42.836;23.998;2022-11-11T04:13:25;96750.88;;;9.94;100.00
12624;BME280;6377;42.836;23.998;2022-11-11T04:16:09;96738.34;;;9.96;100.00
12624;BME280;6377;42.836;23.998;2022-11-11T04:18:38;96744.47;;;9.96;100.00
12624;BME280;6377;42.836;23.998;2022-11-11T04:21:23;96743.84;;;9.85;100.00
12624;BME280;6377;42.836;23.998;2022-11-11T04:24:09;96743.28;;;9.81;100.00
12624;BME280;6377;42.836;23.998;2022-11-11T04:26:56;96748.50;;;9.73;100.00
12624;BME280;6377;42.836;23.998;2022-11-11T04:29:23;96748.88;;;9.78;100.00
12624;BME280;6377;42.836;23.998;2022-11-11T04:31:57;96747.91;;;9.79;100.00
12624;BME280;6377;42.836;23.998;2022-11-11T04:34:44;96747.34;;;9.76;100.00
12624;BME280;6377;42.836;23.998;2022-11-11T04:37:12;96762.81;;;9.71;100.00
12624;BME280;6377;42.836;23.998;2022-11-11T04:39:40;96757.84;;;9.68;100.00
12624;BME280;6377;42.836;23.998;2022-11-11T04:42:24;96763.25;;;9.66;100.00
12624;BME280;6377;42.836;23.998;2022-11-11T04:44:52;96760.50;;;9.58;100.00
12624;BME280;6377;42.836;23.998;2022-11-11T04:47:36;96767.31;;;9.61;100.00
12624;BME280;6377;42.836;23.998;2022-11-11T04:50:06;96769.81;;;9.62;100.00
12624;BME280;6377;42.836;23.998;2022-11-11T04:52:33;96767.00;;;9.64;100.00
12624;BME280;6377;42.836;23.998;2022-11-11T04:55:00;96772.31;;;9.64;100.00
12624;BME280;6377;42.836;23.998;2022-11-11T04:57:46;96771.47;;;9.63;100.00
12624;BME280;6377;42.836;23.998;2022-11-11T05:00:15;96765.66;;;9.60;100.00
12624;BME280;6377;42.836;23.998;2022-11-11T05:02:43;96770.19;;;9.67;100.00
12624;BME280;6377;42.836;23.998;2022-11-11T05:05:29;96770.09;;;9.59;100.00
12624;BME280;6377;42.836;23.998;2022-11-11T05:08:18;96779.25;;;9.65;100.00
12624;BME280;6377;42.836;23.998;2022-11-11T05:11:03;96763.31;;;9.56;100.00
12624;BME280;6377;42.836;23.998;2022-11-11T05:13:30;96779.63;;;9.70;100.00
12624;BME280;6377;42.836;23.998;2022-11-11T05:16:18;96785.59;;;9.72;100.00
12624;BME280;6377;42.836;23.998;2022-11-11T05:19:03;96782.53;;;9.76;100.00
12624;BME280;6377;42.836;23.998;2022-11-11T05:21:50;96779.34;;;9.73;100.00
12624;BME280;6377;42.836;23.998;2022-11-11T05:24:18;96784.72;;;9.81;100.00
12624;BME280;6377;42.836;23.998;2022-11-11T05:27:03;96791.25;;;9.86;100.00
12624;BME280;6377;42.836;23.998;2022-11-11T05:29:30;96786.78;;;9.87;100.00
12624;BME280;6377;42.836;23.998;2022-11-11T05:31:57;96795.25;;;9.90;100.00
12624;BME280;6377;42.836;23.998;2022-11-11T05:34:24;96800.25;;;9.93;100.00
12624;BME280;6377;42.836;23.998;2022-11-11T05:36:52;96807.88;;;9.96;100.00
12624;BME280;6377;42.836;23.998;2022-11-11T05:39:19;96806.47;;;10.02;100.00
12624;BME280;6377;42.836;23.998;2022-11-11T05:41:47;96813.13;;;10.06;100.00
12624;BME280;6377;42.836;23.998;2022-11-11T05:44:14;96801.47;;;9.99;100.00
12624;BME280;6377;42.836;23.998;2022-11-11T05:46:41;96815.06;;;10.13;100.00
12624;BME280;6377;42.836;23.998;2022-11-11T05:49:08;96814.09;;;10.15;100.00
12624;BME280;6377;42.836;23.998;2022-11-11T05:51:41;96807.84;;;10.06;100.00
12624;BME280;6377;42.836;23.998;2022-11-11T05:54:10;96796.72;;;10.02;100.00
12624;BME280;6377;42.836;23.998;2022-11-11T05:56:37;96831.16;;;10.20;100.00
12624;BME280;6377;42.836;23.998;2022-11-11T05:59:05;96832.97;;;10.20;100.00
12624;BME280;6377;42.836;23.998;2022-11-11T06:01:32;96846.88;;;10.22;100.00
12624;BME280;6377;42.836;23.998;2022-11-11T06:03:59;96851.19;;;10.23;100.00
12624;BME280;6377;42.836;23.998;2022-11-11T06:06:27;96826.34;;;10.16;100.00
12624;BME280;6377;42.836;23.998;2022-11-11T06:08:54;96862.44;;;10.25;100.00
12624;BME280;6377;42.836;23.998;2022-11-11T06:11:23;96869.69;;;10.23;100.00
12624;BME280;6377;42.836;23.998;2022-11-11T06:13:50;96870.44;;;10.15;100.00
12624;BME280;6377;42.836;23.998;2022-11-11T06:16:17;96881.31;;;10.02;100.00
12624;BME280;6377;42.836;23.998;2022-11-11T06:18:44;96880.41;;;9.84;100.00
12624;BME280;6377;42.836;23.998;2022-11-11T06:21:11;96827.13;;;9.42;100.00
12624;BME280;6377;42.836;23.998;2022-11-11T06:23:39;96868.56;;;9.42;100.00
12624;BME280;6377;42.836;23.998;2022-11-11T06:26:06;96892.84;;;9.55;100.00
12624;BME280;6377;42.836;23.998;2022-11-11T06:28:42;96907.56;;;9.67;100.00
12624;BME280;6377;42.836;23.998;2022-11-11T06:31:12;96902.56;;;9.64;100.00
12624;BME280;6377;42.836;23.998;2022-11-11T06:33:40;96918.25;;;9.75;100.00
12624;BME280;6377;42.836;23.998;2022-11-11T06:36:09;96929.94;;;9.82;100.00
12624;BME280;6377;42.836;23.998;2022-11-11T06:38:38;96923.91;;;9.90;100.00
12624;BME280;6377;42.836;23.998;2022-11-11T06:41:05;96930.72;;;9.92;100.00
12624;BME280;6377;42.836;23.998;2022-11-11T06:43:32;96930.69;;;10.02;100.00
12624;BME280;6377;42.836;23.998;2022-11-11T06:46:01;96940.16;;;10.04;100.00
12624;BME280;6377;42.836;23.998;2022-11-11T06:48:28;96922.75;;;10.02;100.00
12624;BME280;6377;42.836;23.998;2022-11-11T06:51:00;96936.25;;;10.18;100.00
12624;BME280;6377;42.836;23.998;2022-11-11T06:53:28;96939.00;;;10.26;100.00
12624;BME280;6377;42.836;23.998;2022-11-11T06:55:56;96945.22;;;10.35;100.00
12624;BME280;6377;42.836;23.998;2022-11-11T06:58:24;96930.09;;;10.27;100.00
12624;BME280;6377;42.836;23.998;2022-11-11T07:00:51;96921.50;;;10.16;100.00
12624;BME280;6377;42.836;23.998;2022-11-11T07:03:21;96953.16;;;10.35;100.00
12624;BME280;6377;42.836;23.998;2022-11-11T07:05:48;96948.53;;;10.37;100.00
12624;BME280;6377;42.836;23.998;2022-11-11T07:08:17;96942.75;;;10.33;100.00
12624;BME280;6377;42.836;23.998;2022-11-11T07:10:46;96957.00;;;10.50;100.00
12624;BME280;6377;42.836;23.998;2022-11-11T07:13:14;96955.41;;;10.57;100.00
12624;BME280;6377;42.836;23.998;2022-11-11T07:15:42;96963.75;;;10.62;100.00
12624;BME280;6377;42.836;23.998;2022-11-11T07:18:10;96953.00;;;10.36;100.00
12624;BME280;6377;42.836;23.998;2022-11-11T07:20:39;96972.66;;;10.61;100.00
12624;BME280;6377;42.836;23.998;2022-11-11T07:23:06;96973.03;;;10.66;100.00
12624;BME280;6377;42.836;23.998;2022-11-11T07:25:33;96976.25;;;10.69;100.00
12624;BME280;6377;42.836;23.998;2022-11-11T07:28:01;96971.50;;;10.73;100.00
12624;BME280;6377;42.836;23.998;2022-11-11T07:30:28;96969.69;;;10.74;100.00
12624;BME280;6377;42.836;23.998;2022-11-11T07:32:55;96975.47;;;10.59;100.00
12624;BME280;6377;42.836;23.998;2022-11-11T07:35:23;96970.56;;;10.64;100.00
12624;BME280;6377;42.836;23.998;2022-11-11T07:37:51;96989.56;;;10.78;100.00
12624;BME280;6377;42.836;23.998;2022-11-11T07:40:19;96991.22;;;10.79;100.00
12624;BME280;6377;42.836;23.998;2022-11-11T07:42:46;96993.09;;;10.68;100.00
12624;BME280;6377;42.836;23.998;2022-11-11T07:45:14;97002.16;;;10.66;100.00
12624;BME280;6377;42.836;23.998;2022-11-11T07:47:44;96985.34;;;10.57;100.00
12624;BME280;6377;42.836;23.998;2022-11-11T07:50:11;97003.44;;;10.62;100.00
12624;BME280;6377;42.836;23.998;2022-11-11T07:52:39;96976.66;;;10.38;100.00
12624;BME280;6377;42.836;23.998;2022-11-11T07:55:08;97000.44;;;10.47;100.00
12624;BME280;6377;42.836;23.998;2022-11-11T07:57:35;97000.84;;;10.43;100.00
12624;BME280;6377;42.836;23.998;2022-11-11T08:00:04;96968.69;;;10.01;100.00
12624;BME280;6377;42.836;23.998;2022-11-11T08:02:32;97019.16;;;10.27;100.00
12624;BME280;6377;42.836;23.998;2022-11-11T08:04:59;97012.06;;;10.27;100.00
12624;BME280;6377;42.836;23.998;2022-11-11T08:07:27;97022.75;;;10.35;100.00
12624;BME280;6377;42.836;23.998;2022-11-11T08:09:54;97024.00;;;10.41;100.00
12624;BME280;6377;42.836;23.998;2022-11-11T08:12:22;97017.84;;;10.50;100.00
12624;BME280;6377;42.836;23.998;2022-11-11T08:15:07;97022.53;;;10.56;100.00
12624;BME280;6377;42.836;23.998;2022-11-11T08:17:38;97028.09;;;10.62;100.00
12624;BME280;6377;42.836;23.998;2022-11-11T08:20:07;96968.91;;;10.27;100.00
12624;BME280;6377;42.836;23.998;2022-11-11T08:22:36;97021.91;;;10.72;100.00
12624;BME280;6377;42.836;23.998;2022-11-11T08:25:04;97023.84;;;10.79;100.00
12624;BME280;6377;42.836;23.998;2022-11-11T08:27:35;97024.66;;;10.80;100.00
12624;BME280;6377;42.836;23.998;2022-11-11T08:30:03;97029.22;;;10.87;100.00
12624;BME280;6377;42.836;23.998;2022-11-11T08:32:30;97025.31;;;10.91;100.00
12624;BME280;6377;42.836;23.998;2022-11-11T08:34:57;97022.75;;;10.99;100.00
12624;BME280;6377;42.836;23.998;2022-11-11T08:37:25;97030.22;;;11.04;100.00
12624;BME280;6377;42.836;23.998;2022-11-11T08:39:52;97033.97;;;11.11;100.00
12624;BME280;6377;42.836;23.998;2022-11-11T08:42:19;97035.47;;;11.13;100.00
12624;BME280;6377;42.836;23.998;2022-11-11T08:44:48;97040.47;;;11.16;100.00
12624;BME280;6377;42.836;23.998;2022-11-11T08:47:16;97035.34;;;11.15;100.00
12624;BME280;6377;42.836;23.998;2022-11-11T08:49:45;97029.63;;;11.10;100.00
12624;BME280;6377;42.836;23.998;2022-11-11T08:52:13;97039.72;;;11.06;100.00
12624;BME280;6377;42.836;23.998;2022-11-11T08:54:41;97030.41;;;11.02;100.00
12624;BME280;6377;42.836;23.998;2022-11-11T08:57:08;97049.31;;;11.07;100.00
12624;BME280;6377;42.836;23.998;2022-11-11T08:59:35;97051.56;;;11.02;100.00
12624;BME280;6377;42.836;23.998;2022-11-11T09:02:04;97038.78;;;10.98;100.00
12624;BME280;6377;42.836;23.998;2022-11-11T09:04:31;97046.91;;;11.14;100.00
12624;BME280;6377;42.836;23.998;2022-11-11T09:06:59;97045.66;;;11.18;100.00
12624;BME280;6377;42.836;23.998;2022-11-11T09:09:26;97038.97;;;11.14;100.00
12624;BME280;6377;42.836;23.998;2022-11-11T09:11:53;97033.22;;;11.18;100.00
12624;BME280;6377;42.836;23.998;2022-11-11T09:14:20;97041.31;;;11.17;100.00
12624;BME280;6377;42.836;23.998;2022-11-11T09:16:48;97040.25;;;11.27;100.00
12624;BME280;6377;42.836;23.998;2022-11-11T09:19:16;97046.66;;;11.35;100.00
12624;BME280;6377;42.836;23.998;2022-11-11T09:21:43;97038.09;;;11.41;100.00
12624;BME280;6377;42.836;23.998;2022-11-11T09:24:11;97038.09;;;11.41;100.00
12624;BME280;6377;42.836;23.998;2022-11-11T09:26:38;97037.56;;;11.37;100.00
12624;BME280;6377;42.836;23.998;2022-11-11T09:29:08;97019.84;;;11.20;100.00
12624;BME280;6377;42.836;23.998;2022-11-11T09:31:35;97017.63;;;11.15;100.00
12624;BME280;6377;42.836;23.998;2022-11-11T09:34:02;97028.31;;;11.23;100.00
12624;BME280;6377;42.836;23.998;2022-11-11T09:36:32;97025.91;;;11.30;100.00
12624;BME280;6377;42.836;23.998;2022-11-11T09:39:00;97031.41;;;11.37;100.00
12624;BME280;6377;42.836;23.998;2022-11-11T09:41:37;97036.72;;;11.37;100.00
12624;BME280;6377;42.836;23.998;2022-11-11T09:44:22;97028.78;;;11.37;100.00
12624;BME280;6377;42.836;23.998;2022-11-11T09:46:57;97028.63;;;11.38;100.00
12624;BME280;6377;42.836;23.998;2022-11-11T09:49:44;97027.44;;;11.33;100.00
12624;BME280;6377;42.836;23.998;2022-11-11T09:52:19;97018.09;;;11.29;100.00
12624;BME280;6377;42.836;23.998;2022-11-11T09:54:51;97008.69;;;11.16;100.00
12624;BME280;6377;42.836;23.998;2022-11-11T09:57:25;97015.75;;;11.25;100.00
12624;BME280;6377;42.836;23.998;2022-11-11T09:59:56;97016.53;;;11.36;100.00
12624;BME280;6377;42.836;23.998;2022-11-11T10:02:34;96989.63;;;11.13;100.00
12624;BME280;6377;42.836;23.998;2022-11-11T10:05:05;97021.13;;;11.34;100.00
12624;BME280;6377;42.836;23.998;2022-11-11T10:07:39;97012.44;;;11.41;100.00
12624;BME280;6377;42.836;23.998;2022-11-11T10:10:15;97012.81;;;11.46;100.00
12624;BME280;6377;42.836;23.998;2022-11-11T10:12:46;97011.84;;;11.47;100.00
12624;BME280;6377;42.836;23.998;2022-11-11T10:15:19;97009.94;;;11.40;100.00
12624;BME280;6377;42.836;23.998;2022-11-11T10:18:04;97004.63;;;11.40;100.00
12624;BME280;6377;42.836;23.998;2022-11-11T10:20:39;97010.16;;;11.46;100.00
12624;BME280;6377;42.836;23.998;2022-11-11T10:23:13;97005.16;;;11.25;100.00
12624;BME280;6377;42.836;23.998;2022-11-11T10:25:47;96984.78;;;11.08;100.00
12624;BME280;6377;42.836;23.998;2022-11-11T10:28:18;96952.59;;;10.68;100.00
12624;BME280;6377;42.836;23.998;2022-11-11T10:30:47;97006.84;;;10.99;100.00
12624;BME280;6377;42.836;23.998;2022-11-11T10:33:19;97006.31;;;10.96;100.00
12624;BME280;6377;42.836;23.998;2022-11-11T10:35:51;96982.31;;;10.80;100.00
12624;BME280;6377;42.836;23.998;2022-11-11T10:38:32;96990.66;;;10.85;100.00
12624;BME280;6377;42.836;23.998;2022-11-11T10:41:07;97002.41;;;11.00;100.00
12624;BME280;6377;42.836;23.998;2022-11-11T10:43:36;96998.16;;;11.07;100.00
12624;BME280;6377;42.836;23.998;2022-11-11T10:46:07;97000.91;;;11.15;100.00
12624;BME280;6377;42.836;23.998;2022-11-11T10:48:44;97006.00;;;11.26;100.00
12624;BME280;6377;42.836;23.998;2022-11-11T10:51:15;96950.66;;;10.88;100.00
12624;BME280;6377;42.836;23.998;2022-11-11T10:53:50;96971.91;;;10.96;100.00
12624;BME280;6377;42.836;23.998;2022-11-11T10:56:24;96999.59;;;11.01;100.00
12624;BME280;6377;42.836;23.998;2022-11-11T10:58:57;96912.16;;;10.48;100.00
12624;BME280;6377;42.836;23.998;2022-11-11T11:01:31;96931.78;;;10.46;100.00
12624;BME280;6377;42.836;23.998;2022-11-11T11:04:04;96936.41;;;10.44;100.00
12624;BME280;6377;42.836;23.998;2022-11-11T11:06:34;96988.47;;;10.80;100.00
12624;BME280;6377;42.836;23.998;2022-11-11T11:09:12;96991.72;;;10.92;100.00
12624;BME280;6377;42.836;23.998;2022-11-11T11:11:45;96986.28;;;10.93;100.00
12624;BME280;6377;42.836;23.998;2022-11-11T11:14:20;96989.69;;;10.86;100.00
12624;BME280;6377;42.836;23.998;2022-11-11T11:16:50;96973.25;;;10.82;100.00
12624;BME280;6377;42.836;23.998;2022-11-11T11:19:21;96996.78;;;10.85;100.00
12624;BME280;6377;42.836;23.998;2022-11-11T11:21:51;96961.53;;;10.57;100.00
12624;BME280;6377;42.836;23.998;2022-11-11T11:24:22;96990.06;;;10.63;100.00
12624;BME280;6377;42.836;23.998;2022-11-11T11:26:51;96986.44;;;10.64;100.00
12624;BME280;6377;42.836;23.998;2022-11-11T11:29:29;96990.00;;;10.73;100.00
12624;BME280;6377;42.836;23.998;2022-11-11T11:32:11;96992.66;;;10.73;100.00
12624;BME280;6377;42.836;23.998;2022-11-11T11:34:44;96990.56;;;10.77;100.00
12624;BME280;6377;42.836;23.998;2022-11-11T11:37:13;96990.25;;;10.80;100.00
12624;BME280;6377;42.836;23.998;2022-11-11T11:39:42;96989.97;;;10.83;100.00
12624;BME280;6377;42.836;23.998;2022-11-11T11:42:26;96978.63;;;10.90;100.00
12624;BME280;6377;42.836;23.998;2022-11-11T11:44:54;96988.16;;;11.01;100.00
12624;BME280;6377;42.836;23.998;2022-11-11T11:47:31;96980.09;;;11.02;100.00
12624;BME280;6377;42.836;23.998;2022-11-11T11:50:13;96965.84;;;10.86;100.00
12624;BME280;6377;42.836;23.998;2022-11-11T11:52:52;96985.94;;;11.06;100.00
12624;BME280;6377;42.836;23.998;2022-11-11T11:55:26;96979.94;;;11.04;100.00
12624;BME280;6377;42.836;23.998;2022-11-11T11:58:22;96982.28;;;11.07;100.00
12624;BME280;6377;42.836;23.998;2022-11-11T12:01:00;96987.16;;;11.11;100.00
12624;BME280;6377;42.836;23.998;2022-11-11T12:04:02;96988.66;;;11.14;100.00
12624;BME280;6377;42.836;23.998;2022-11-11T12:06:42;96985.72;;;11.17;100.00
12624;BME280;6377;42.836;23.998;2022-11-11T12:09:26;96991.69;;;11.19;100.00
12624;BME280;6377;42.836;23.998;2022-11-11T12:12:06;96985.72;;;11.17;100.00
12624;BME280;6377;42.836;23.998;2022-11-11T12:14:50;96980.09;;;11.02;100.00
12624;BME280;6377;42.836;23.998;2022-11-11T12:17:31;96985.47;;;11.10;100.00
12624;BME280;6377;42.836;23.998;2022-11-11T12:20:10;96987.81;;;11.13;100.00
12624;BME280;6377;42.836;23.998;2022-11-11T12:22:51;96988.81;;;11.12;100.00
12624;BME280;6377;42.836;23.998;2022-11-11T12:25:39;96988.13;;;11.10;100.00
12624;BME280;6377;42.836;23.998;2022-11-11T12:28:20;96992.44;;;11.11;100.00
12624;BME280;6377;42.836;23.998;2022-11-11T12:30:53;96976.97;;;11.07;100.00
12624;BME280;6377;42.836;23.998;2022-11-11T12:33:48;96942.16;;;10.84;100.00
12624;BME280;6377;42.836;23.998;2022-11-11T12:36:28;96961.06;;;10.89;100.00
12624;BME280;6377;42.836;23.998;2022-11-11T12:38:57;96968.53;;;11.03;100.00
12624;BME280;6377;42.836;23.998;2022-11-11T12:41:43;96969.19;;;11.05;100.00
12624;BME280;6377;42.836;23.998;2022-11-11T12:44:15;96942.47;;;10.81;100.00
12624;BME280;6377;42.836;23.998;2022-11-11T12:46:57;96977.81;;;11.07;100.00
12624;BME280;6377;42.836;23.998;2022-11-11T12:49:42;96966.47;;;10.97;100.00
12624;BME280;6377;42.836;23.998;2022-11-11T12:52:22;96952.63;;;10.86;100.00
12624;BME280;6377;42.836;23.998;2022-11-11T12:55:08;96974.25;;;10.99;100.00
12624;BME280;6377;42.836;23.998;2022-11-11T12:57:51;96973.22;;;10.92;100.00
12624;BME280;6377;42.836;23.998;2022-11-11T13:00:22;96965.88;;;11.03;100.00
12624;BME280;6377;42.836;23.998;2022-11-11T13:03:07;96969.03;;;11.07;100.00
12624;BME280;6377;42.836;23.998;2022-11-11T13:05:42;96970.28;;;11.12;100.00
12624;BME280;6377;42.836;23.998;2022-11-11T13:08:42;96967.84;;;11.19;100.00
12624;BME280;6377;42.836;23.998;2022-11-11T13:11:14;96970.72;;;11.25;100.00
12624;BME280;6377;42.836;23.998;2022-11-11T13:13:55;96961.94;;;11.25;100.00
12624;BME280;6377;42.836;23.998;2022-11-11T13:16:26;96964.81;;;11.32;100.00
12624;BME280;6377;42.836;23.998;2022-11-11T13:18:56;96978.44;;;11.37;100.00
12624;BME280;6377;42.836;23.998;2022-11-11T13:21:33;96977.78;;;11.35;100.00